sensor_id;sensor_type;location;lat;lon;timestamp;P1;durP1;ratioP1;P2;durP2;ratioP2
14599;SDS011;7386;45.586;12.854;2023-11-19T00:00:27;32.73;;;22.57;;
14599;SDS011;7386;45.586;12.854;2023-11-19T00:02:56;29.70;;;22.00;;
14599;SDS011;7386;45.586;12.854;2023-11-19T00:05:24;28.33;;;21.57;;
14599;SDS011;7386;45.586;12.854;2023-11-19T00:07:54;31.00;;;22.57;;
14599;SDS011;7386;45.586;12.854;2023-11-19T00:10:24;30.50;;;21.63;;
14599;SDS011;7386;45.586;12.854;2023-11-19T00:12:52;30.70;;;22.10;;
14599;SDS011;7386;45.586;12.854;2023-11-19T00:15:23;33.37;;;22.30;;
14599;SDS011;7386;45.586;12.854;2023-11-19T00:17:52;29.30;;;21.23;;
14599;SDS011;7386;45.586;12.854;2023-11-19T00:20:23;29.80;;;21.30;;
14599;SDS011;7386;45.586;12.854;2023-11-19T00:22:51;29.03;;;20.37;;
14599;SDS011;7386;45.586;12.854;2023-11-19T00:25:20;27.90;;;21.43;;
14599;SDS011;7386;45.586;12.854;2023-11-19T00:27:50;32.13;;;21.10;;
14599;SDS011;7386;45.586;12.854;2023-11-19T00:30:20;28.10;;;19.97;;
14599;SDS011;7386;45.586;12.854;2023-11-19T00:32:49;28.50;;;20.23;;
14599;SDS011;7386;45.586;12.854;2023-11-19T00:35:20;27.30;;;20.50;;
14599;SDS011;7386;45.586;12.854;2023-11-19T00:37:49;26.70;;;20.70;;
14599;SDS011;7386;45.586;12.854;2023-11-19T00:40:20;30.00;;;21.50;;
14599;SDS011;7386;45.586;12.854;2023-11-19T00:42:51;29.73;;;21.77;;
14599;SDS011;7386;45.586;12.854;2023-11-19T00:45:19;27.83;;;20.27;;
14599;SDS011;7386;45.586;12.854;2023-11-19T00:47:48;32.27;;;22.37;;
14599;SDS011;7386;45.586;12.854;2023-11-19T00:50:17;31.73;;;23.20;;
14599;SDS011;7386;45.586;12.854;2023-11-19T00:52:46;30.73;;;21.77;;
14599;SDS011;7386;45.586;12.854;2023-11-19T00:55:14;30.70;;;22.83;;
14599;SDS011;7386;45.586;12.854;2023-11-19T00:57:43;30.30;;;22.57;;
14599;SDS011;7386;45.586;12.854;2023-11-19T01:00:14;32.37;;;23.07;;
14599;SDS011;7386;45.586;12.854;2023-11-19T01:02:46;30.20;;;22.10;;
14599;SDS011;7386;45.586;12.854;2023-11-19T01:05:18;32.50;;;22.77;;
14599;SDS011;7386;45.586;12.854;2023-11-19T01:07:49;32.03;;;22.17;;
14599;SDS011;7386;45.586;12.854;2023-11-19T01:10:21;31.13;;;21.73;;
14599;SDS011;7386;45.586;12.854;2023-11-19T01:12:50;31.10;;;22.03;;
14599;SDS011;7386;45.586;12.854;2023-11-19T01:15:20;30.27;;;21.27;;
14599;SDS011;7386;45.586;12.854;2023-11-19T01:17:49;30.00;;;21.60;;
14599;SDS011;7386;45.586;12.854;2023-11-19T01:20:19;28.37;;;20.87;;
14599;SDS011;7386;45.586;12.854;2023-11-19T01:22:48;29.23;;;21.60;;
14599;SDS011;7386;45.586;12.854;2023-11-19T01:25:17;28.53;;;20.97;;
14599;SDS011;7386;45.586;12.854;2023-11-19T01:27:46;28.17;;;20.43;;
14599;SDS011;7386;45.586;12.854;2023-11-19T01:30:16;29.10;;;20.57;;
14599;SDS011;7386;45.586;12.854;2023-11-19T01:32:48;28.13;;;20.40;;
14599;SDS011;7386;45.586;12.854;2023-11-19T01:35:17;25.90;;;19.57;;
14599;SDS011;7386;45.586;12.854;2023-11-19T01:37:45;31.00;;;20.67;;
14599;SDS011;7386;45.586;12.854;2023-11-19T01:40:14;25.70;;;19.03;;
14599;SDS011;7386;45.586;12.854;2023-11-19T01:42:42;28.93;;;20.63;;
14599;SDS011;7386;45.586;12.854;2023-11-19T01:45:11;28.00;;;19.50;;
14599;SDS011;7386;45.586;12.854;2023-11-19T01:47:45;28.53;;;19.73;;
14599;SDS011;7386;45.586;12.854;2023-11-19T01:50:15;25.60;;;19.23;;
14599;SDS011;7386;45.586;12.854;2023-11-19T01:52:44;26.50;;;19.67;;
14599;SDS011;7386;45.586;12.854;2023-11-19T01:55:12;31.80;;;20.13;;
14599;SDS011;7386;45.586;12.854;2023-11-19T01:57:41;26.57;;;18.87;;
14599;SDS011;7386;45.586;12.854;2023-11-19T02:00:09;25.60;;;18.70;;
14599;SDS011;7386;45.586;12.854;2023-11-19T02:02:39;26.00;;;18.40;;
14599;SDS011;7386;45.586;12.854;2023-11-19T02:05:08;27.03;;;18.57;;
14599;SDS011;7386;45.586;12.854;2023-11-19T02:07:38;26.10;;;18.33;;
14599;SDS011;7386;45.586;12.854;2023-11-19T02:10:07;25.77;;;17.73;;
14599;SDS011;7386;45.586;12.854;2023-11-19T02:12:40;24.37;;;17.70;;
14599;SDS011;7386;45.586;12.854;2023-11-19T02:15:10;25.33;;;18.03;;
14599;SDS011;7386;45.586;12.854;2023-11-19T02:17:39;24.43;;;17.60;;
14599;SDS011;7386;45.586;12.854;2023-11-19T02:20:07;23.07;;;17.20;;
14599;SDS011;7386;45.586;12.854;2023-11-19T02:22:40;25.93;;;16.97;;
14599;SDS011;7386;45.586;12.854;2023-11-19T02:25:12;24.43;;;17.00;;
14599;SDS011;7386;45.586;12.854;2023-11-19T02:27:54;21.90;;;16.20;;
14599;SDS011;7386;45.586;12.854;2023-11-19T02:30:24;21.40;;;16.33;;
14599;SDS011;7386;45.586;12.854;2023-11-19T02:32:53;24.17;;;16.57;;
14599;SDS011;7386;45.586;12.854;2023-11-19T02:35:23;20.67;;;15.20;;
14599;SDS011;7386;45.586;12.854;2023-11-19T02:37:52;20.20;;;15.47;;
14599;SDS011;7386;45.586;12.854;2023-11-19T02:40:21;22.10;;;15.40;;
14599;SDS011;7386;45.586;12.854;2023-11-19T02:42:50;21.67;;;16.00;;
14599;SDS011;7386;45.586;12.854;2023-11-19T02:45:20;21.17;;;15.83;;
14599;SDS011;7386;45.586;12.854;2023-11-19T02:47:49;19.97;;;14.70;;
14599;SDS011;7386;45.586;12.854;2023-11-19T02:50:18;19.50;;;15.07;;
14599;SDS011;7386;45.586;12.854;2023-11-19T02:52:52;21.07;;;15.33;;
14599;SDS011;7386;45.586;12.854;2023-11-19T02:55:22;21.17;;;14.37;;
14599;SDS011;7386;45.586;12.854;2023-11-19T02:57:51;19.87;;;14.67;;
14599;SDS011;7386;45.586;12.854;2023-11-19T03:00:24;19.83;;;14.73;;
14599;SDS011;7386;45.586;12.854;2023-11-19T03:03:00;20.17;;;14.00;;
14599;SDS011;7386;45.586;12.854;2023-11-19T03:05:44;18.27;;;13.93;;
14599;SDS011;7386;45.586;12.854;2023-11-19T03:08:14;18.33;;;13.47;;
14599;SDS011;7386;45.586;12.854;2023-11-19T03:10:46;16.80;;;13.40;;
14599;SDS011;7386;45.586;12.854;2023-11-19T03:13:15;16.93;;;13.53;;
14599;SDS011;7386;45.586;12.854;2023-11-19T03:15:46;19.40;;;13.40;;
14599;SDS011;7386;45.586;12.854;2023-11-19T03:18:14;18.13;;;13.13;;
14599;SDS011;7386;45.586;12.854;2023-11-19T03:20:43;17.93;;;12.87;;
14599;SDS011;7386;45.586;12.854;2023-11-19T03:23:11;17.90;;;12.93;;
14599;SDS011;7386;45.586;12.854;2023-11-19T03:25:40;17.97;;;12.77;;
14599;SDS011;7386;45.586;12.854;2023-11-19T03:28:10;17.63;;;12.40;;
14599;SDS011;7386;45.586;12.854;2023-11-19T03:30:38;18.43;;;12.73;;
14599;SDS011;7386;45.586;12.854;2023-11-19T03:33:08;17.87;;;12.03;;
14599;SDS011;7386;45.586;12.854;2023-11-19T03:35:38;15.60;;;11.73;;
14599;SDS011;7386;45.586;12.854;2023-11-19T03:38:07;16.10;;;11.57;;
14599;SDS011;7386;45.586;12.854;2023-11-19T03:40:36;14.83;;;10.87;;
14599;SDS011;7386;45.586;12.854;2023-11-19T03:43:05;16.73;;;11.97;;
14599;SDS011;7386;45.586;12.854;2023-11-19T03:45:34;16.93;;;11.20;;
14599;SDS011;7386;45.586;12.854;2023-11-19T03:48:04;15.57;;;11.07;;
14599;SDS011;7386;45.586;12.854;2023-11-19T03:50:34;14.53;;;10.50;;
14599;SDS011;7386;45.586;12.854;2023-11-19T03:53:02;16.07;;;11.10;;
14599;SDS011;7386;45.586;12.854;2023-11-19T03:55:31;16.03;;;10.83;;
14599;SDS011;7386;45.586;12.854;2023-11-19T03:58:00;16.00;;;10.97;;
14599;SDS011;7386;45.586;12.854;2023-11-19T04:00:28;15.57;;;10.70;;
14599;SDS011;7386;45.586;12.854;2023-11-19T04:02:57;14.30;;;10.83;;
14599;SDS011;7386;45.586;12.854;2023-11-19T04:05:27;14.47;;;10.57;;
14599;SDS011;7386;45.586;12.854;2023-11-19T04:07:57;16.23;;;10.50;;
14599;SDS011;7386;45.586;12.854;2023-11-19T04:10:25;16.57;;;10.67;;
14599;SDS011;7386;45.586;12.854;2023-11-19T04:12:54;14.73;;;10.90;;
14599;SDS011;7386;45.586;12.854;2023-11-19T04:15:23;13.57;;;10.20;;
14599;SDS011;7386;45.586;12.854;2023-11-19T04:17:51;13.27;;;10.40;;
14599;SDS011;7386;45.586;12.854;2023-11-19T04:20:20;14.80;;;10.07;;
14599;SDS011;7386;45.586;12.854;2023-11-19T04:22:49;14.70;;;10.17;;
14599;SDS011;7386;45.586;12.854;2023-11-19T04:25:21;15.07;;;11.03;;
14599;SDS011;7386;45.586;12.854;2023-11-19T04:27:52;13.30;;;9.47;;
14599;SDS011;7386;45.586;12.854;2023-11-19T04:30:21;13.80;;;10.17;;
14599;SDS011;7386;45.586;12.854;2023-11-19T04:32:49;16.67;;;10.20;;
14599;SDS011;7386;45.586;12.854;2023-11-19T04:35:18;14.77;;;10.27;;
14599;SDS011;7386;45.586;12.854;2023-11-19T04:37:47;14.63;;;9.80;;
14599;SDS011;7386;45.586;12.854;2023-11-19T04:40:16;13.87;;;9.73;;
14599;SDS011;7386;45.586;12.854;2023-11-19T04:42:47;16.33;;;9.97;;
14599;SDS011;7386;45.586;12.854;2023-11-19T04:45:15;14.50;;;10.27;;
14599;SDS011;7386;45.586;12.854;2023-11-19T04:47:44;13.47;;;9.87;;
14599;SDS011;7386;45.586;12.854;2023-11-19T04:50:12;13.47;;;9.60;;
14599;SDS011;7386;45.586;12.854;2023-11-19T04:52:41;13.40;;;9.93;;
14599;SDS011;7386;45.586;12.854;2023-11-19T04:55:12;15.07;;;9.97;;
14599;SDS011;7386;45.586;12.854;2023-11-19T04:57:41;12.50;;;8.93;;
14599;SDS011;7386;45.586;12.854;2023-11-19T05:00:12;13.90;;;9.60;;
14599;SDS011;7386;45.586;12.854;2023-11-19T05:02:43;13.43;;;9.13;;
14599;SDS011;7386;45.586;12.854;2023-11-19T05:05:12;15.60;;;10.03;;
14599;SDS011;7386;45.586;12.854;2023-11-19T05:07:40;14.13;;;9.40;;
14599;SDS011;7386;45.586;12.854;2023-11-19T05:10:09;12.97;;;9.37;;
14599;SDS011;7386;45.586;12.854;2023-11-19T05:12:38;13.60;;;9.60;;
14599;SDS011;7386;45.586;12.854;2023-11-19T05:15:08;12.80;;;9.10;;
14599;SDS011;7386;45.586;12.854;2023-11-19T05:17:39;13.87;;;9.50;;
14599;SDS011;7386;45.586;12.854;2023-11-19T05:20:08;13.97;;;9.67;;
14599;SDS011;7386;45.586;12.854;2023-11-19T05:22:40;13.90;;;9.30;;
14599;SDS011;7386;45.586;12.854;2023-11-19T05:25:09;11.57;;;8.90;;
14599;SDS011;7386;45.586;12.854;2023-11-19T05:27:38;12.40;;;8.47;;
14599;SDS011;7386;45.586;12.854;2023-11-19T05:30:07;11.10;;;8.47;;
14599;SDS011;7386;45.586;12.854;2023-11-19T05:32:37;13.20;;;8.50;;
14599;SDS011;7386;45.586;12.854;2023-11-19T05:35:08;11.17;;;8.10;;
14599;SDS011;7386;45.586;12.854;2023-11-19T05:37:36;12.80;;;8.10;;
14599;SDS011;7386;45.586;12.854;2023-11-19T05:40:05;10.93;;;8.30;;
14599;SDS011;7386;45.586;12.854;2023-11-19T05:42:41;12.20;;;8.03;;
14599;SDS011;7386;45.586;12.854;2023-11-19T05:45:11;11.07;;;8.13;;
14599;SDS011;7386;45.586;12.854;2023-11-19T05:47:40;11.10;;;7.80;;
14599;SDS011;7386;45.586;12.854;2023-11-19T05:50:11;11.07;;;7.20;;
14599;SDS011;7386;45.586;12.854;2023-11-19T05:52:40;10.30;;;7.87;;
14599;SDS011;7386;45.586;12.854;2023-11-19T05:55:09;10.97;;;7.77;;
14599;SDS011;7386;45.586;12.854;2023-11-19T05:57:39;10.33;;;7.40;;
14599;SDS011;7386;45.586;12.854;2023-11-19T06:00:11;13.23;;;7.90;;
14599;SDS011;7386;45.586;12.854;2023-11-19T06:02:42;10.30;;;7.33;;
14599;SDS011;7386;45.586;12.854;2023-11-19T06:05:12;11.30;;;7.90;;
14599;SDS011;7386;45.586;12.854;2023-11-19T06:07:40;11.27;;;7.90;;
14599;SDS011;7386;45.586;12.854;2023-11-19T06:10:09;10.33;;;7.47;;
14599;SDS011;7386;45.586;12.854;2023-11-19T06:12:39;11.63;;;7.40;;
14599;SDS011;7386;45.586;12.854;2023-11-19T06:15:08;11.53;;;8.43;;
14599;SDS011;7386;45.586;12.854;2023-11-19T06:17:38;9.77;;;7.67;;
14599;SDS011;7386;45.586;12.854;2023-11-19T06:20:07;11.23;;;8.07;;
14599;SDS011;7386;45.586;12.854;2023-11-19T06:22:39;10.67;;;7.10;;
14599;SDS011;7386;45.586;12.854;2023-11-19T06:25:10;10.27;;;7.70;;
14599;SDS011;7386;45.586;12.854;2023-11-19T06:27:41;13.57;;;7.93;;
14599;SDS011;7386;45.586;12.854;2023-11-19T06:30:10;9.70;;;7.40;;
14599;SDS011;7386;45.586;12.854;2023-11-19T06:32:39;11.30;;;8.00;;
14599;SDS011;7386;45.586;12.854;2023-11-19T06:35:08;10.27;;;7.70;;
14599;SDS011;7386;45.586;12.854;2023-11-19T06:37:39;13.00;;;8.20;;
14599;SDS011;7386;45.586;12.854;2023-11-19T06:40:08;11.53;;;7.83;;
14599;SDS011;7386;45.586;12.854;2023-11-19T06:42:38;10.37;;;7.67;;
14599;SDS011;7386;45.586;12.854;2023-11-19T06:45:07;11.23;;;8.17;;
14599;SDS011;7386;45.586;12.854;2023-11-19T06:47:36;10.83;;;7.97;;
14599;SDS011;7386;45.586;12.854;2023-11-19T06:50:06;11.90;;;8.17;;
14599;SDS011;7386;45.586;12.854;2023-11-19T06:52:35;11.47;;;7.77;;
14599;SDS011;7386;45.586;12.854;2023-11-19T06:55:06;12.43;;;8.40;;
14599;SDS011;7386;45.586;12.854;2023-11-19T06:57:35;10.70;;;7.77;;
14599;SDS011;7386;45.586;12.854;2023-11-19T07:00:04;14.17;;;8.23;;
14599;SDS011;7386;45.586;12.854;2023-11-19T07:02:34;11.53;;;7.73;;
14599;SDS011;7386;45.586;12.854;2023-11-19T07:05:03;13.13;;;7.83;;
14599;SDS011;7386;45.586;12.854;2023-11-19T07:07:32;11.40;;;8.00;;
14599;SDS011;7386;45.586;12.854;2023-11-19T07:10:02;10.90;;;8.13;;
14599;SDS011;7386;45.586;12.854;2023-11-19T07:12:33;13.27;;;7.90;;
14599;SDS011;7386;45.586;12.854;2023-11-19T07:15:02;11.60;;;7.17;;
14599;SDS011;7386;45.586;12.854;2023-11-19T07:17:31;9.20;;;6.27;;
14599;SDS011;7386;45.586;12.854;2023-11-19T07:20:01;8.43;;;5.60;;
14599;SDS011;7386;45.586;12.854;2023-11-19T07:22:31;6.40;;;4.80;;
14599;SDS011;7386;45.586;12.854;2023-11-19T07:24:59;7.40;;;5.00;;
14599;SDS011;7386;45.586;12.854;2023-11-19T07:27:28;5.77;;;4.17;;
14599;SDS011;7386;45.586;12.854;2023-11-19T07:29:58;5.60;;;4.27;;
14599;SDS011;7386;45.586;12.854;2023-11-19T07:32:27;7.23;;;4.63;;
14599;SDS011;7386;45.586;12.854;2023-11-19T07:34:56;5.57;;;4.00;;
14599;SDS011;7386;45.586;12.854;2023-11-19T07:37:25;6.77;;;4.13;;
14599;SDS011;7386;45.586;12.854;2023-11-19T07:39:53;5.20;;;3.80;;
14599;SDS011;7386;45.586;12.854;2023-11-19T07:42:22;6.57;;;4.13;;
14599;SDS011;7386;45.586;12.854;2023-11-19T07:44:50;5.90;;;4.10;;
14599;SDS011;7386;45.586;12.854;2023-11-19T07:47:22;6.23;;;3.93;;
14599;SDS011;7386;45.586;12.854;2023-11-19T07:49:51;6.60;;;4.50;;
14599;SDS011;7386;45.586;12.854;2023-11-19T07:52:20;5.47;;;4.40;;
14599;SDS011;7386;45.586;12.854;2023-11-19T07:54:48;5.53;;;4.10;;
14599;SDS011;7386;45.586;12.854;2023-11-19T07:57:17;6.10;;;4.40;;
14599;SDS011;7386;45.586;12.854;2023-11-19T07:59:46;6.40;;;4.40;;
14599;SDS011;7386;45.586;12.854;2023-11-19T08:02:15;7.30;;;5.00;;
14599;SDS011;7386;45.586;12.854;2023-11-19T08:04:46;5.97;;;4.27;;
14599;SDS011;7386;45.586;12.854;2023-11-19T08:07:18;6.83;;;4.40;;
14599;SDS011;7386;45.586;12.854;2023-11-19T08:09:46;6.60;;;4.50;;
14599;SDS011;7386;45.586;12.854;2023-11-19T08:12:15;7.20;;;4.43;;
14599;SDS011;7386;45.586;12.854;2023-11-19T08:14:44;6.70;;;4.77;;
14599;SDS011;7386;45.586;12.854;2023-11-19T08:17:12;5.53;;;4.17;;
14599;SDS011;7386;45.586;12.854;2023-11-19T08:19:41;6.63;;;4.40;;
14599;SDS011;7386;45.586;12.854;2023-11-19T08:22:11;5.77;;;4.10;;
14599;SDS011;7386;45.586;12.854;2023-11-19T08:24:39;6.27;;;4.20;;
14599;SDS011;7386;45.586;12.854;2023-11-19T08:27:08;6.93;;;4.40;;
14599;SDS011;7386;45.586;12.854;2023-11-19T08:29:36;5.87;;;4.27;;
14599;SDS011;7386;45.586;12.854;2023-11-19T08:32:05;4.67;;;3.80;;
14599;SDS011;7386;45.586;12.854;2023-11-19T08:34:34;5.97;;;4.20;;
14599;SDS011;7386;45.586;12.854;2023-11-19T08:37:03;7.20;;;4.60;;
14599;SDS011;7386;45.586;12.854;2023-11-19T08:39:33;7.53;;;4.70;;
14599;SDS011;7386;45.586;12.854;2023-11-19T08:42:04;6.83;;;4.40;;
14599;SDS011;7386;45.586;12.854;2023-11-19T08:44:32;6.47;;;4.00;;
14599;SDS011;7386;45.586;12.854;2023-11-19T08:47:01;6.27;;;4.00;;
14599;SDS011;7386;45.586;12.854;2023-11-19T08:49:30;6.73;;;4.00;;
14599;SDS011;7386;45.586;12.854;2023-11-19T08:51:59;5.30;;;3.70;;
14599;SDS011;7386;45.586;12.854;2023-11-19T08:54:27;5.23;;;3.97;;
14599;SDS011;7386;45.586;12.854;2023-11-19T08:56:57;5.70;;;3.90;;
14599;SDS011;7386;45.586;12.854;2023-11-19T08:59:26;6.07;;;3.97;;
14599;SDS011;7386;45.586;12.854;2023-11-19T09:01:54;4.47;;;3.17;;
14599;SDS011;7386;45.586;12.854;2023-11-19T09:04:23;5.70;;;3.80;;
14599;SDS011;7386;45.586;12.854;2023-11-19T09:06:52;6.23;;;4.00;;
14599;SDS011;7386;45.586;12.854;2023-11-19T09:09:21;7.03;;;4.37;;
14599;SDS011;7386;45.586;12.854;2023-11-19T09:11:49;6.53;;;4.30;;
14599;SDS011;7386;45.586;12.854;2023-11-19T09:14:19;6.13;;;4.13;;
14599;SDS011;7386;45.586;12.854;2023-11-19T09:16:50;5.73;;;4.00;;
14599;SDS011;7386;45.586;12.854;2023-11-19T09:19:19;6.13;;;4.27;;
14599;SDS011;7386;45.586;12.854;2023-11-19T09:21:47;5.50;;;3.80;;
14599;SDS011;7386;45.586;12.854;2023-11-19T09:24:16;5.17;;;3.60;;
14599;SDS011;7386;45.586;12.854;2023-11-19T09:26:44;4.23;;;3.33;;
14599;SDS011;7386;45.586;12.854;2023-11-19T09:29:13;5.07;;;3.73;;
14599;SDS011;7386;45.586;12.854;2023-11-19T09:31:44;5.97;;;3.47;;
14599;SDS011;7386;45.586;12.854;2023-11-19T09:34:13;5.70;;;3.40;;
14599;SDS011;7386;45.586;12.854;2023-11-19T09:36:41;4.27;;;3.30;;
14599;SDS011;7386;45.586;12.854;2023-11-19T09:39:10;4.90;;;3.60;;
14599;SDS011;7386;45.586;12.854;2023-11-19T09:41:41;5.13;;;3.40;;
14599;SDS011;7386;45.586;12.854;2023-11-19T09:44:11;4.00;;;3.20;;
14599;SDS011;7386;45.586;12.854;2023-11-19T09:46:41;3.93;;;3.10;;
14599;SDS011;7386;45.586;12.854;2023-11-19T09:49:11;4.90;;;3.30;;
14599;SDS011;7386;45.586;12.854;2023-11-19T09:51:40;4.77;;;3.50;;
14599;SDS011;7386;45.586;12.854;2023-11-19T09:54:08;4.20;;;3.20;;
14599;SDS011;7386;45.586;12.854;2023-11-19T09:56:39;5.10;;;3.43;;
14599;SDS011;7386;45.586;12.854;2023-11-19T09:59:08;4.97;;;3.60;;
14599;SDS011;7386;45.586;12.854;2023-11-19T10:01:37;5.00;;;3.43;;
14599;SDS011;7386;45.586;12.854;2023-11-19T10:04:06;3.93;;;3.10;;
14599;SDS011;7386;45.586;12.854;2023-11-19T10:06:37;4.07;;;3.10;;
14599;SDS011;7386;45.586;12.854;2023-11-19T10:09:06;5.73;;;3.57;;
14599;SDS011;7386;45.586;12.854;2023-11-19T10:11:34;4.10;;;3.37;;
14599;SDS011;7386;45.586;12.854;2023-11-19T10:14:03;5.73;;;3.70;;
14599;SDS011;7386;45.586;12.854;2023-11-19T10:16:31;4.30;;;3.30;;
14599;SDS011;7386;45.586;12.854;2023-11-19T10:19:02;4.23;;;3.00;;
14599;SDS011;7386;45.586;12.854;2023-11-19T10:21:32;3.80;;;3.10;;
14599;SDS011;7386;45.586;12.854;2023-11-19T10:24:02;4.53;;;3.23;;
14599;SDS011;7386;45.586;12.854;2023-11-19T10:26:33;4.63;;;3.00;;
14599;SDS011;7386;45.586;12.854;2023-11-19T10:29:04;3.90;;;3.00;;
14599;SDS011;7386;45.586;12.854;2023-11-19T10:31:33;4.60;;;3.20;;
14599;SDS011;7386;45.586;12.854;2023-11-19T10:34:01;3.97;;;3.20;;
14599;SDS011;7386;45.586;12.854;2023-11-19T10:36:39;4.23;;;3.20;;
14599;SDS011;7386;45.586;12.854;2023-11-19T10:39:10;5.03;;;3.60;;
14599;SDS011;7386;45.586;12.854;2023-11-19T10:41:39;3.97;;;3.10;;
14599;SDS011;7386;45.586;12.854;2023-11-19T10:44:07;4.10;;;3.00;;
14599;SDS011;7386;45.586;12.854;2023-11-19T10:46:36;4.50;;;3.20;;
14599;SDS011;7386;45.586;12.854;2023-11-19T10:49:06;4.90;;;3.40;;
14599;SDS011;7386;45.586;12.854;2023-11-19T10:51:35;3.63;;;2.87;;
14599;SDS011;7386;45.586;12.854;2023-11-19T10:54:04;3.80;;;3.03;;
14599;SDS011;7386;45.586;12.854;2023-11-19T10:56:34;5.00;;;3.30;;
14599;SDS011;7386;45.586;12.854;2023-11-19T10:59:03;5.23;;;2.93;;
14599;SDS011;7386;45.586;12.854;2023-11-19T11:01:38;3.93;;;3.10;;
14599;SDS011;7386;45.586;12.854;2023-11-19T11:04:10;3.00;;;2.50;;
14599;SDS011;7386;45.586;12.854;2023-11-19T11:06:42;4.73;;;3.27;;
14599;SDS011;7386;45.586;12.854;2023-11-19T11:09:11;4.47;;;3.30;;
14599;SDS011;7386;45.586;12.854;2023-11-19T11:11:43;3.47;;;2.83;;
14599;SDS011;7386;45.586;12.854;2023-11-19T11:14:14;4.03;;;3.10;;
14599;SDS011;7386;45.586;12.854;2023-11-19T11:16:44;3.73;;;3.00;;
14599;SDS011;7386;45.586;12.854;2023-11-19T11:19:14;4.53;;;3.17;;
14599;SDS011;7386;45.586;12.854;2023-11-19T11:21:46;3.57;;;3.00;;
14599;SDS011;7386;45.586;12.854;2023-11-19T11:24:31;3.50;;;2.80;;
14599;SDS011;7386;45.586;12.854;2023-11-19T11:29:56;4.27;;;3.00;;
14599;SDS011;7386;45.586;12.854;2023-11-19T11:32:32;3.53;;;3.10;;
14599;SDS011;7386;45.586;12.854;2023-11-19T11:35:08;3.97;;;3.10;;
14599;SDS011;7386;45.586;12.854;2023-11-19T11:37:42;3.80;;;2.97;;
14599;SDS011;7386;45.586;12.854;2023-11-19T11:40:14;4.43;;;3.20;;
14599;SDS011;7386;45.586;12.854;2023-11-19T11:42:42;4.47;;;3.30;;
14599;SDS011;7386;45.586;12.854;2023-11-19T11:45:13;3.57;;;2.87;;
14599;SDS011;7386;45.586;12.854;2023-11-19T11:50:29;3.90;;;2.93;;
14599;SDS011;7386;45.586;12.854;2023-11-19T11:53:14;3.03;;;2.63;;
14599;SDS011;7386;45.586;12.854;2023-11-19T11:55:52;4.37;;;3.13;;
14599;SDS011;7386;45.586;12.854;2023-11-19T11:58:22;3.40;;;2.87;;
14599;SDS011;7386;45.586;12.854;2023-11-19T12:00:56;4.27;;;3.10;;
14599;SDS011;7386;45.586;12.854;2023-11-19T12:03:27;4.03;;;2.80;;
14599;SDS011;7386;45.586;12.854;2023-11-19T12:05:56;4.73;;;3.00;;
14599;SDS011;7386;45.586;12.854;2023-11-19T12:08:26;3.00;;;2.67;;
14599;SDS011;7386;45.586;12.854;2023-11-19T12:10:56;3.60;;;2.93;;
14599;SDS011;7386;45.586;12.854;2023-11-19T12:13:29;3.90;;;2.93;;
14599;SDS011;7386;45.586;12.854;2023-11-19T12:16:13;4.37;;;3.17;;
14599;SDS011;7386;45.586;12.854;2023-11-19T12:18:42;4.20;;;3.23;;
14599;SDS011;7386;45.586;12.854;2023-11-19T12:21:11;3.73;;;2.90;;
14599;SDS011;7386;45.586;12.854;2023-11-19T12:23:48;3.27;;;2.60;;
14599;SDS011;7386;45.586;12.854;2023-11-19T12:26:21;3.70;;;3.00;;
14599;SDS011;7386;45.586;12.854;2023-11-19T12:28:58;3.80;;;3.00;;
14599;SDS011;7386;45.586;12.854;2023-11-19T12:31:31;4.13;;;3.00;;
14599;SDS011;7386;45.586;12.854;2023-11-19T12:34:05;4.67;;;3.00;;
14599;SDS011;7386;45.586;12.854;2023-11-19T12:36:39;4.13;;;2.90;;
14599;SDS011;7386;45.586;12.854;2023-11-19T12:39:09;3.53;;;2.93;;
14599;SDS011;7386;45.586;12.854;2023-11-19T12:41:50;3.80;;;2.97;;
14599;SDS011;7386;45.586;12.854;2023-11-19T12:44:19;4.80;;;3.00;;
14599;SDS011;7386;45.586;12.854;2023-11-19T12:47:05;4.90;;;3.30;;
14599;SDS011;7386;45.586;12.854;2023-11-19T12:49:37;4.07;;;2.93;;
14599;SDS011;7386;45.586;12.854;2023-11-19T12:52:15;4.63;;;3.20;;
14599;SDS011;7386;45.586;12.854;2023-11-19T12:54:44;3.53;;;3.00;;
14599;SDS011;7386;45.586;12.854;2023-11-19T12:57:12;3.57;;;3.00;;
14599;SDS011;7386;45.586;12.854;2023-11-19T12:59:41;4.13;;;3.10;;
14599;SDS011;7386;45.586;12.854;2023-11-19T13:02:11;4.30;;;3.07;;
14599;SDS011;7386;45.586;12.854;2023-11-19T13:04:40;3.60;;;2.90;;
14599;SDS011;7386;45.586;12.854;2023-11-19T13:07:09;3.53;;;3.00;;
14599;SDS011;7386;45.586;12.854;2023-11-19T13:09:37;4.07;;;3.07;;
14599;SDS011;7386;45.586;12.854;2023-11-19T13:12:13;3.37;;;2.83;;
14599;SDS011;7386;45.586;12.854;2023-11-19T13:14:42;4.60;;;3.20;;
14599;SDS011;7386;45.586;12.854;2023-11-19T13:17:16;4.50;;;3.17;;
14599;SDS011;7386;45.586;12.854;2023-11-19T13:19:46;3.97;;;3.20;;
14599;SDS011;7386;45.586;12.854;2023-11-19T13:22:17;4.23;;;3.00;;
14599;SDS011;7386;45.586;12.854;2023-11-19T13:24:45;4.43;;;3.43;;
14599;SDS011;7386;45.586;12.854;2023-11-19T13:27:14;4.07;;;2.97;;
14599;SDS011;7386;45.586;12.854;2023-11-19T13:29:43;3.70;;;2.93;;
14599;SDS011;7386;45.586;12.854;2023-11-19T13:32:11;4.67;;;3.23;;
14599;SDS011;7386;45.586;12.854;2023-11-19T13:34:41;3.50;;;3.00;;
14599;SDS011;7386;45.586;12.854;2023-11-19T13:37:10;4.57;;;3.27;;
14599;SDS011;7386;45.586;12.854;2023-11-19T13:39:41;4.70;;;3.13;;
14599;SDS011;7386;45.586;12.854;2023-11-19T13:42:10;3.70;;;3.20;;
14599;SDS011;7386;45.586;12.854;2023-11-19T13:44:39;3.83;;;3.17;;
14599;SDS011;7386;45.586;12.854;2023-11-19T13:47:09;5.30;;;3.20;;
14599;SDS011;7386;45.586;12.854;2023-11-19T13:49:41;3.97;;;2.97;;
14599;SDS011;7386;45.586;12.854;2023-11-19T13:52:10;5.07;;;3.40;;
14599;SDS011;7386;45.586;12.854;2023-11-19T13:54:39;4.70;;;3.40;;
14599;SDS011;7386;45.586;12.854;2023-11-19T13:57:07;4.80;;;3.33;;
14599;SDS011;7386;45.586;12.854;2023-11-19T13:59:39;5.33;;;3.60;;
14599;SDS011;7386;45.586;12.854;2023-11-19T14:02:08;3.77;;;3.03;;
14599;SDS011;7386;45.586;12.854;2023-11-19T14:04:36;4.13;;;3.20;;
14599;SDS011;7386;45.586;12.854;2023-11-19T14:07:06;5.20;;;3.60;;
14599;SDS011;7386;45.586;12.854;2023-11-19T14:09:35;5.10;;;3.30;;
14599;SDS011;7386;45.586;12.854;2023-11-19T14:12:04;4.37;;;3.13;;
14599;SDS011;7386;45.586;12.854;2023-11-19T14:14:32;5.80;;;3.37;;
14599;SDS011;7386;45.586;12.854;2023-11-19T14:17:01;4.33;;;3.20;;
14599;SDS011;7386;45.586;12.854;2023-11-19T14:19:33;4.57;;;3.47;;
14599;SDS011;7386;45.586;12.854;2023-11-19T14:22:02;5.23;;;3.50;;
14599;SDS011;7386;45.586;12.854;2023-11-19T14:24:32;4.67;;;3.20;;
14599;SDS011;7386;45.586;12.854;2023-11-19T14:27:00;5.00;;;3.20;;
14599;SDS011;7386;45.586;12.854;2023-11-19T14:29:29;4.70;;;3.17;;
14599;SDS011;7386;45.586;12.854;2023-11-19T14:31:57;4.87;;;3.40;;
14599;SDS011;7386;45.586;12.854;2023-11-19T14:34:26;4.43;;;3.33;;
14599;SDS011;7386;45.586;12.854;2023-11-19T14:36:55;4.40;;;3.40;;
14599;SDS011;7386;45.586;12.854;2023-11-19T14:39:23;4.43;;;3.60;;
14599;SDS011;7386;45.586;12.854;2023-11-19T14:41:53;4.73;;;3.27;;
14599;SDS011;7386;45.586;12.854;2023-11-19T14:44:24;5.60;;;3.80;;
14599;SDS011;7386;45.586;12.854;2023-11-19T14:46:53;5.87;;;3.50;;
14599;SDS011;7386;45.586;12.854;2023-11-19T14:49:22;5.70;;;3.60;;
14599;SDS011;7386;45.586;12.854;2023-11-19T14:51:50;4.47;;;3.57;;
14599;SDS011;7386;45.586;12.854;2023-11-19T14:54:19;4.43;;;3.60;;
14599;SDS011;7386;45.586;12.854;2023-11-19T14:56:47;5.23;;;3.53;;
14599;SDS011;7386;45.586;12.854;2023-11-19T14:59:17;5.73;;;3.60;;